TIF weather

Thomas County Airport
Thedford, Nebraska, United States

Public forecast

Using degrees Fahrenheit for public forecast. Weather courtesy of forecast.io.

Current aviation weather report (METAR) for Thomas County Airport

Retrieved 2019/10/22 21:35 UTC (0 seconds ago):

KTIF 222135Z AUTO 30015G25KT 10SM CLR 15/M02 A2991 RMK AO2 T01451021

Closest aviation forecast (TAF) to Thomas County Airport

Closest forecast is North Platte Regional Airport Lee Bird Field, 50.5 nm (93.5 km) S. Retrieved 2019/10/22 18:33 UTC (3 hours ago):

TAF KLBF 221730Z 2218/2318 30015G23KT P6SM SCT100 FM230000 27005KT P6SM SCT120 FM231200 30006KT P6SM SCT200 FM231500 31013G20KT P6SM SCT250